Time;durP1;ratioP1;P1;durP2;ratioP2;P2;SDS_P1;SDS_P2;PMS_P1;PMS_P2;Temp;Humidity;BMP_temperature;BMP_pressure;BME280_temperature;BME280_humidity;BME280_pressure;Samples;Min_cycle;Max_cycle;Signal;HPM_P1;HPM_P2
2021/11/19 00:00:41;;;;;;;32.17;23.10;;;8.40;99.90;;;;;;5015481;28;20034;-49
2021/11/19 00:03:08;;;;;;;29.15;22.30;;;8.40;99.90;;;;;;5015460;28;20099;-50
2021/11/19 00:05:35;;;;;;;30.77;23.23;;;8.40;99.90;;;;;;5015594;28;20044;-47
2021/11/19 00:08:01;;;;;;;33.30;22.60;;;8.40;99.90;;;;;;5015378;28;20358;-48
2021/11/19 00:10:28;;;;;;;34.75;24.60;;;8.50;99.90;;;;;;5015209;28;20030;-48
2021/11/19 00:12:54;;;;;;;34.50;24.27;;;8.50;99.90;;;;;;5015050;28;20048;-49
2021/11/19 00:15:20;;;;;;;34.55;24.75;;;8.50;99.90;;;;;;5015264;28;20113;-50
2021/11/19 00:17:47;;;;;;;36.13;24.70;;;8.60;99.90;;;;;;5015126;28;20033;-49
2021/11/19 00:20:16;;;;;;;33.28;24.40;;;8.60;99.90;;;;;;5012418;28;20046;-50
2021/11/19 00:22:43;;;;;;;35.55;25.08;;;8.60;99.90;;;;;;5012806;28;20038;-49
2021/11/19 00:25:09;;;;;;;34.42;23.88;;;8.50;99.90;;;;;;5012665;28;20038;-48
2021/11/19 00:27:37;;;;;;;34.67;24.50;;;8.50;99.90;;;;;;5012661;28;20034;-47
2021/11/19 00:30:07;;;;;;;35.22;24.00;;;8.40;99.90;;;;;;5012593;28;20061;-49
2021/11/19 00:32:32;;;;;;;35.15;25.52;;;8.30;99.90;;;;;;5012540;28;20084;-50
2021/11/19 00:34:58;;;;;;;34.42;23.67;;;8.30;99.90;;;;;;4963551;28;20037;-49
2021/11/19 00:37:24;;;;;;;37.20;24.80;;;8.30;99.90;;;;;;5012395;28;20036;-48
2021/11/19 00:39:50;;;;;;;37.83;23.65;;;8.20;99.90;;;;;;4979657;28;20042;-50
2021/11/19 00:42:16;;;;;;;37.03;24.13;;;8.20;99.90;;;;;;5012298;28;20038;-48
2021/11/19 00:44:41;;;;;;;31.90;21.80;;;8.20;99.90;;;;;;4995817;28;20077;-48
2021/11/19 00:47:08;;;;;;;30.63;22.10;;;8.10;99.90;;;;;;5012172;28;20025;-49
2021/11/19 00:49:37;;;;;;;30.00;21.33;;;8.10;99.90;;;;;;4995761;28;20046;-50
2021/11/19 00:52:06;;;;;;;30.85;21.35;;;8.00;99.90;;;;;;5013958;28;20049;-48
2021/11/19 00:54:32;;;;;;;30.45;22.42;;;8.00;99.90;;;;;;4996313;28;20046;-49
2021/11/19 00:57:03;;;;;;;30.27;20.60;;;8.00;99.90;;;;;;5014846;28;20489;-49
2021/11/19 00:59:32;;;;;;;32.75;22.65;;;8.00;99.90;;;;;;4995967;28;20141;-48
2021/11/19 01:02:02;;;;;;;32.13;23.05;;;8.00;99.90;;;;;;4995929;28;20073;-50
2021/11/19 01:04:29;;;;;;;35.80;24.00;;;8.10;99.90;;;;;;5012264;28;20489;-48
2021/11/19 01:06:54;;;;;;;36.30;24.52;;;8.10;99.90;;;;;;5014138;28;20109;-48
2021/11/19 01:09:25;;;;;;;36.00;25.25;;;8.00;99.90;;;;;;4995720;28;20048;-48
2021/11/19 01:11:52;;;;;;;35.72;25.40;;;8.00;99.90;;;;;;5014117;28;20493;-49
2021/11/19 01:14:26;;;;;;;34.88;24.38;;;7.90;99.90;;;;;;4995620;28;20042;-50
2021/11/19 01:16:58;;;;;;;31.90;23.55;;;8.00;99.90;;;;;;5013954;28;20489;-48
2021/11/19 01:19:32;;;;;;;33.60;22.55;;;7.90;99.90;;;;;;5013759;28;20032;-49
2021/11/19 01:22:05;;;;;;;33.83;23.00;;;7.90;99.90;;;;;;5014356;28;20125;-50
2021/11/19 01:24:31;;;;;;;34.13;22.60;;;7.90;99.90;;;;;;5013819;28;20049;-49
2021/11/19 01:26:58;;;;;;;28.48;21.55;;;7.90;99.90;;;;;;5013743;28;20036;-48
2021/11/19 01:29:24;;;;;;;32.60;22.70;;;7.90;99.90;;;;;;5013958;28;20029;-49
2021/11/19 01:31:53;;;;;;;35.03;22.17;;;7.90;99.90;;;;;;5013850;28;20026;-49
2021/11/19 01:34:19;;;;;;;32.65;22.30;;;7.90;99.90;;;;;;5013656;28;20030;-50
2021/11/19 01:36:46;;;;;;;28.98;21.13;;;7.90;99.90;;;;;;5013736;28;20116;-50
2021/11/19 01:39:15;;;;;;;33.85;22.27;;;7.90;99.90;;;;;;5013425;28;20041;-48
2021/11/19 01:41:45;;;;;;;34.67;22.02;;;7.80;99.90;;;;;;5013710;28;20030;-48
2021/11/19 01:44:34;;;;;;;33.85;23.15;;;7.90;99.90;;;;;;5013530;28;20108;-50
2021/11/19 01:47:03;;;;;;;33.40;23.63;;;7.90;99.90;;;;;;5013430;28;20429;-48
2021/11/19 01:49:30;;;;;;;35.65;25.00;;;7.90;99.90;;;;;;5013122;28;20049;-50
2021/11/19 01:52:05;;;;;;;35.60;23.10;;;7.90;99.90;;;;;;5013429;28;20108;-48
2021/11/19 01:55:15;;;;;;;32.58;22.25;;;7.90;99.90;;;;;;5013391;28;20054;-50
2021/11/19 01:58:10;;;;;;;34.10;21.45;;;7.90;99.90;;;;;;5012512;28;20046;-49
2021/11/19 02:00:49;;;;;;;33.58;21.73;;;7.80;99.90;;;;;;5012439;28;20045;-48
2021/11/19 02:03:17;;;;;;;27.00;19.95;;;7.90;99.90;;;;;;5013420;28;20040;-50
2021/11/19 02:05:56;;;;;;;28.65;20.80;;;7.90;99.90;;;;;;5013339;28;20033;-47
2021/11/19 02:08:24;;;;;;;32.10;21.27;;;7.90;99.90;;;;;;5013152;28;20030;-49
2021/11/19 02:11:08;;;;;;;33.60;21.02;;;7.90;99.90;;;;;;4994392;28;20041;-50
2021/11/19 02:13:44;;;;;;;32.30;21.73;;;7.80;99.90;;;;;;5012623;28;20026;-50
2021/11/19 02:16:18;;;;;;;32.10;20.52;;;7.90;99.90;;;;;;5012909;28;20529;-48
2021/11/19 02:18:55;;;;;;;32.17;22.88;;;7.90;99.90;;;;;;5013462;28;20117;-48
2021/11/19 02:21:35;;;;;;;28.70;21.13;;;7.90;99.90;;;;;;5012361;28;20099;-50
2021/11/19 02:24:14;;;;;;;31.25;20.15;;;7.80;99.90;;;;;;5013000;28;20029;-48
2021/11/19 02:26:50;;;;;;;31.92;21.67;;;7.90;99.90;;;;;;5013285;28;20069;-47
2021/11/19 02:29:17;;;;;;;28.88;21.00;;;7.80;99.90;;;;;;5012838;28;20549;-50
2021/11/19 02:32:06;;;;;;;30.52;19.90;;;7.90;99.90;;;;;;5012693;28;20409;-48
2021/11/19 02:34:33;;;;;;;30.08;19.88;;;7.90;99.90;;;;;;5020127;28;20037;-50
2021/11/19 02:37:24;;;;;;;29.35;20.40;;;8.00;99.90;;;;;;5032851;28;20022;-49
2021/11/19 02:39:58;;;;;;;27.23;18.45;;;7.90;99.90;;;;;;4973829;28;20136;-48
2021/11/19 02:42:27;;;;;;;28.30;19.02;;;8.00;99.90;;;;;;4982697;28;20085;-48
2021/11/19 02:44:55;;;;;;;25.98;17.65;;;7.90;99.90;;;;;;4990774;28;20050;-49
2021/11/19 02:47:24;;;;;;;28.05;19.30;;;7.90;99.90;;;;;;4951947;28;20031;-50
2021/11/19 02:49:50;;;;;;;26.30;17.52;;;7.90;99.90;;;;;;4941084;29;20147;-49
2021/11/19 02:52:30;;;;;;;22.60;16.35;;;7.90;99.90;;;;;;4932935;29;20063;-48
2021/11/19 02:54:58;;;;;;;22.35;15.63;;;7.90;99.90;;;;;;4932960;29;20059;-50
2021/11/19 02:57:25;;;;;;;23.48;16.45;;;7.90;99.90;;;;;;4932685;29;20124;-50
2021/11/19 02:59:52;;;;;;;22.45;16.30;;;7.80;99.90;;;;;;4932651;29;20091;-48
2021/11/19 03:02:22;;;;;;;22.73;15.68;;;7.90;99.90;;;;;;4951169;28;20077;-48
2021/11/19 03:04:54;;;;;;;25.05;17.85;;;7.90;99.90;;;;;;4951861;28;20039;-48
2021/11/19 03:07:21;;;;;;;24.90;17.77;;;7.90;99.90;;;;;;4951833;29;20043;-48
2021/11/19 03:09:54;;;;;;;23.02;16.10;;;7.90;99.90;;;;;;4951777;28;20042;-50
2021/11/19 03:12:23;;;;;;;21.50;15.20;;;7.90;99.90;;;;;;4951923;28;20078;-50
2021/11/19 03:14:52;;;;;;;20.90;15.75;;;8.00;99.90;;;;;;4951831;28;20027;-48
2021/11/19 03:17:19;;;;;;;21.10;15.10;;;8.00;99.90;;;;;;4993845;28;20042;-48
2021/11/19 03:19:46;;;;;;;19.27;14.68;;;8.00;99.90;;;;;;5031595;28;20426;-50
2021/11/19 03:22:16;;;;;;;20.50;15.35;;;8.00;99.90;;;;;;5033241;28;20084;-48
2021/11/19 03:24:42;;;;;;;21.10;15.25;;;8.10;99.90;;;;;;5017297;28;20500;-47
2021/11/19 03:27:11;;;;;;;19.92;14.05;;;8.10;99.90;;;;;;5016111;28;20029;-47
2021/11/19 03:29:42;;;;;;;19.65;13.55;;;8.10;99.90;;;;;;5016017;28;20029;-49
2021/11/19 03:32:09;;;;;;;18.92;13.40;;;8.10;99.90;;;;;;5016042;28;20040;-51
2021/11/19 03:34:35;;;;;;;21.02;14.13;;;8.10;99.90;;;;;;5033412;28;20063;-48
2021/11/19 03:37:02;;;;;;;18.42;13.13;;;8.00;99.90;;;;;;5033406;28;20369;-48
2021/11/19 03:39:29;;;;;;;19.63;13.70;;;8.00;99.90;;;;;;5033313;28;20121;-50
2021/11/19 03:41:58;;;;;;;20.80;14.02;;;8.00;99.90;;;;;;5033313;28;20087;-51
2021/11/19 03:44:37;;;;;;;20.50;14.07;;;8.00;99.90;;;;;;5033322;28;20083;-50
2021/11/19 03:47:12;;;;;;;18.33;13.02;;;8.00;99.90;;;;;;5033160;28;20440;-51
2021/11/19 03:49:39;;;;;;;21.23;14.13;;;8.10;99.90;;;;;;5033060;28;20129;-48
2021/11/19 03:52:10;;;;;;;22.10;13.35;;;8.10;99.90;;;;;;5016801;28;20040;-49
2021/11/19 03:54:38;;;;;;;17.80;12.88;;;8.10;99.90;;;;;;5033004;28;20067;-49
2021/11/19 03:57:06;;;;;;;17.73;12.68;;;8.00;99.90;;;;;;5033034;28;20128;-49
2021/11/19 03:59:32;;;;;;;18.25;12.73;;;8.10;99.90;;;;;;5032919;28;20033;-50
2021/11/19 04:01:58;;;;;;;17.70;12.70;;;8.00;99.90;;;;;;4999951;28;20072;-50
2021/11/19 04:04:27;;;;;;;19.50;13.63;;;8.00;99.90;;;;;;5032586;28;20049;-47
2021/11/19 04:06:54;;;;;;;23.30;12.48;;;8.10;99.90;;;;;;5015283;28;20042;-49
2021/11/19 04:09:20;;;;;;;21.98;13.82;;;8.10;99.90;;;;;;5013296;28;20034;-48
2021/11/19 04:11:47;;;;;;;17.83;12.13;;;8.10;99.90;;;;;;5015363;28;20429;-47
2021/11/19 04:14:12;;;;;;;17.77;12.93;;;8.00;99.90;;;;;;5015138;28;20370;-49
2021/11/19 04:16:42;;;;;;;23.33;12.80;;;8.10;99.90;;;;;;5029620;28;20097;-49
2021/11/19 04:19:10;;;;;;;21.65;12.70;;;8.10;99.90;;;;;;5015043;28;20477;-48
2021/11/19 04:21:38;;;;;;;17.63;12.27;;;8.10;99.90;;;;;;5014985;28;20223;-52
2021/11/19 04:24:06;;;;;;;18.40;12.40;;;8.10;99.90;;;;;;5014907;28;20113;-50
2021/11/19 04:26:34;;;;;;;17.58;11.85;;;7.90;99.90;;;;;;5015037;28;20029;-49
2021/11/19 04:29:00;;;;;;;20.80;13.32;;;7.70;99.90;;;;;;5014846;28;20038;-48
2021/11/19 04:31:28;;;;;;;19.27;12.82;;;7.80;99.90;;;;;;5015231;28;20455;-49
2021/11/19 04:33:55;;;;;;;18.27;12.82;;;7.90;99.90;;;;;;5014454;28;20099;-50
2021/11/19 04:36:21;;;;;;;19.55;13.10;;;8.00;99.90;;;;;;5014982;28;20030;-50
2021/11/19 04:38:47;;;;;;;19.95;12.80;;;8.00;99.90;;;;;;5029315;28;20087;-48
2021/11/19 04:41:14;;;;;;;16.35;11.40;;;8.00;99.90;;;;;;5014767;28;20468;-50
2021/11/19 04:43:40;;;;;;;18.50;12.43;;;8.00;99.90;;;;;;5014644;28;20029;-48
2021/11/19 04:46:09;;;;;;;21.05;12.82;;;8.00;99.90;;;;;;5014541;28;20061;-48
2021/11/19 04:48:36;;;;;;;20.00;12.52;;;8.10;99.90;;;;;;5014638;28;20119;-48
2021/11/19 04:51:05;;;;;;;19.95;12.13;;;8.10;99.90;;;;;;5014224;28;20524;-50
2021/11/19 04:53:31;;;;;;;17.92;12.07;;;8.10;99.90;;;;;;5031828;28;20065;-49
2021/11/19 04:55:58;;;;;;;20.85;12.07;;;8.10;99.90;;;;;;5031951;28;20041;-50
2021/11/19 04:58:25;;;;;;;16.23;10.98;;;8.10;99.90;;;;;;5031968;28;20029;-49
2021/11/19 05:01:15;;;;;;;16.73;11.93;;;8.10;99.90;;;;;;5029254;28;20095;-48
2021/11/19 05:03:41;;;;;;;18.17;11.77;;;8.20;99.90;;;;;;5031715;28;20048;-50
2021/11/19 05:06:07;;;;;;;17.50;11.25;;;8.20;99.90;;;;;;5031581;28;20033;-49
2021/11/19 05:08:33;;;;;;;17.52;11.18;;;8.10;99.90;;;;;;4982179;28;20570;-50
2021/11/19 05:11:00;;;;;;;16.55;11.50;;;8.20;99.90;;;;;;5030049;28;20033;-48
2021/11/19 05:13:28;;;;;;;18.88;11.70;;;8.10;99.90;;;;;;5024554;28;20042;-50
2021/11/19 05:15:56;;;;;;;16.95;10.98;;;8.10;99.90;;;;;;5028876;28;20052;-48
2021/11/19 05:18:23;;;;;;;15.57;11.98;;;8.10;99.90;;;;;;5031317;28;20112;-50
2021/11/19 05:20:50;;;;;;;20.52;12.60;;;8.10;99.90;;;;;;5031432;28;20041;-49
2021/11/19 05:23:16;;;;;;;20.35;11.00;;;8.10;99.90;;;;;;5031428;28;20033;-48
2021/11/19 05:25:43;;;;;;;15.43;11.00;;;8.20;99.90;;;;;;5014281;28;20037;-50
2021/11/19 05:28:10;;;;;;;15.88;10.80;;;8.20;99.90;;;;;;5027983;28;20489;-50
2021/11/19 05:30:37;;;;;;;18.67;11.77;;;8.20;99.90;;;;;;5013826;28;20079;-48
2021/11/19 05:33:04;;;;;;;17.20;11.75;;;8.20;99.90;;;;;;5013848;28;20033;-48
2021/11/19 05:35:30;;;;;;;19.75;12.10;;;8.20;99.90;;;;;;5013891;28;20113;-49
2021/11/19 05:37:56;;;;;;;16.73;11.40;;;8.10;99.90;;;;;;5013703;28;20077;-50
2021/11/19 05:40:23;;;;;;;22.63;11.80;;;8.20;99.90;;;;;;5013306;28;20021;-47
2021/11/19 05:42:50;;;;;;;16.83;11.27;;;8.10;99.90;;;;;;5013308;28;20037;-49
2021/11/19 05:45:17;;;;;;;16.55;10.57;;;8.10;99.90;;;;;;5012195;28;20112;-49
2021/11/19 05:47:43;;;;;;;15.60;11.00;;;8.10;99.90;;;;;;4994356;28;20030;-49
2021/11/19 05:50:11;;;;;;;20.17;12.52;;;8.10;99.90;;;;;;4993801;28;20508;-49
2021/11/19 05:52:37;;;;;;;16.15;12.65;;;8.20;99.90;;;;;;4993725;28;20026;-50
2021/11/19 05:55:08;;;;;;;20.13;12.90;;;8.20;99.90;;;;;;5022834;28;20153;-48
2021/11/19 05:57:33;;;;;;;24.70;14.32;;;8.20;99.90;;;;;;4995251;28;20037;-50
2021/11/19 05:59:59;;;;;;;19.27;13.05;;;8.20;99.90;;;;;;5019894;28;20350;-50
2021/11/19 06:02:25;;;;;;;23.50;14.70;;;8.20;99.90;;;;;;5012226;28;20034;-50
2021/11/19 06:04:51;;;;;;;19.75;12.65;;;8.30;99.90;;;;;;5012813;28;20061;-49
2021/11/19 06:07:18;;;;;;;26.67;17.02;;;8.30;99.90;;;;;;4976430;28;20042;-50
2021/11/19 06:09:47;;;;;;;22.88;13.95;;;8.30;99.90;;;;;;5010755;28;20037;-45
2021/11/19 06:12:28;;;;;;;25.17;13.57;;;8.50;99.90;;;;;;5013052;28;20385;-49
2021/11/19 06:14:58;;;;;;;17.87;12.70;;;8.50;99.90;;;;;;5014726;28;20413;-47
2021/11/19 06:17:33;;;;;;;18.98;13.15;;;8.60;99.90;;;;;;5013180;28;20116;-50
2021/11/19 06:20:10;;;;;;;19.83;12.05;;;8.90;99.90;;;;;;5012956;28;20489;-46
2021/11/19 06:22:39;;;;;;;18.15;12.38;;;9.40;99.90;;;;;;5027278;28;20040;-56
2021/11/19 06:25:10;;;;;;;20.45;13.95;;;10.50;99.90;;;;;;5013000;28;20084;-52
2021/11/19 06:27:37;;;;;;;16.87;12.83;;;12.00;99.90;;;;;;4994747;28;20041;-47
2021/11/19 06:30:05;;;;;;;20.63;13.13;;;;;;;;;;5012878;28;20037;-49
2021/11/19 06:32:32;;;;;;;16.70;13.85;;;;;;;;;;5007788;28;20042;-49
2021/11/19 06:34:58;;;;;;;19.75;13.93;;;;;;;;;;5010424;28;20192;-49
2021/11/19 06:37:25;;;;;;;24.70;20.77;;;;;;;;;;5009717;28;20038;-50
2021/11/19 06:39:51;;;;;;;24.80;19.70;;;;;;;;;;4993675;28;20054;-49
2021/11/19 06:42:17;;;;;;;21.48;17.13;;;17.20;99.90;;;;;;5010235;28;20489;-49
2021/11/19 06:44:44;;;;;;;20.88;18.65;;;;;;;;;;5009981;28;20068;-49
2021/11/19 06:47:12;;;;;;;19.98;16.83;;;;;;;;;;5010425;28;20550;-50
2021/11/19 06:49:39;;;;;;;20.70;17.77;;;20.20;99.90;;;;;;5010116;28;20053;-50
2021/11/19 06:52:06;;;;;;;39.38;30.73;;;;;;;;;;5010108;28;20061;-50
2021/11/19 06:54:33;;;;;;;45.10;29.60;;;20.40;99.90;;;;;;5010170;28;20029;-51
2021/11/19 06:57:00;;;;;;;48.88;30.52;;;;;;;;;;5012644;28;20088;-48
2021/11/19 06:59:26;;;;;;;43.95;31.30;;;;;;;;;;5013942;28;20087;-48
2021/11/19 07:01:52;;;;;;;41.83;28.48;;;21.90;99.40;;;;;;5014236;28;20037;-48
2021/11/19 07:04:19;;;;;;;34.60;23.23;;;;;;;;;;5016505;28;20059;-48
2021/11/19 07:06:45;;;;;;;26.42;19.40;;;23.70;82.70;;;;;;5016578;28;20061;-48
2021/11/19 07:09:14;;;;;;;20.48;13.73;;;23.80;83.00;;;;;;5016614;28;20037;-48
2021/11/19 07:11:40;;;;;;;16.58;11.80;;;24.30;81.00;;;;;;5016874;28;20033;-48
2021/11/19 07:14:06;;;;;;;12.45;9.35;;;;;;;;;;5016634;28;20080;-49
2021/11/19 07:16:33;;;;;;;17.92;10.10;;;24.10;78.40;;;;;;5016286;28;20214;-48
2021/11/19 07:19:00;;;;;;;11.20;9.52;;;;;;;;;;5014320;28;20060;-48
2021/11/19 07:21:27;;;;;;;13.80;10.20;;;;;;;;;;5016333;28;20038;-48
2021/11/19 07:23:54;;;;;;;11.57;9.32;;;25.50;77.40;;;;;;5031475;28;20488;-49
2021/11/19 07:26:23;;;;;;;10.90;9.18;;;25.00;75.20;;;;;;5013990;28;20436;-48
2021/11/19 07:28:50;;;;;;;12.05;9.60;;;25.10;75.30;;;;;;5016163;28;20029;-48
2021/11/19 07:31:17;;;;;;;14.00;10.30;;;25.20;74.60;;;;;;5016030;28;20080;-48
2021/11/19 07:33:44;;;;;;;13.85;11.10;;;26.00;90.00;;;;;;5016102;28;20390;-49
2021/11/19 07:36:11;;;;;;;15.35;11.23;;;26.50;74.50;;;;;;5016007;28;20029;-48
2021/11/19 07:38:37;;;;;;;13.68;9.85;;;27.30;72.90;;;;;;5015811;28;20109;-48
2021/11/19 07:41:06;;;;;;;14.25;11.18;;;26.20;73.40;;;;;;5046977;28;20474;-49
2021/11/19 07:43:34;;;;;;;14.38;12.88;;;27.20;72.60;;;;;;5015946;28;20033;-48
2021/11/19 07:46:00;;;;;;;15.63;12.93;;;27.20;70.20;;;;;;5015589;28;20045;-48
2021/11/19 07:48:32;;;;;;;17.40;15.13;;;26.70;68.60;;;;;;5015878;28;20237;-48
2021/11/19 07:51:02;;;;;;;14.27;12.07;;;25.90;72.00;;;;;;4990958;28;20046;-48
2021/11/19 07:53:28;;;;;;;10.85;8.85;;;26.40;70.40;;;;;;4991294;28;20034;-48
2021/11/19 07:55:55;;;;;;;16.13;12.07;;;25.30;69.30;;;;;;4944728;28;20530;-48
2021/11/19 07:58:23;;;;;;;20.92;9.02;;;23.70;71.10;;;;;;4977169;28;20093;-48
2021/11/19 08:00:50;;;;;;;16.73;11.45;;;22.00;73.80;;;;;;4993232;28;20050;-48
2021/11/19 08:03:17;;;;;;;15.48;12.02;;;20.90;76.30;;;;;;4993606;28;20033;-48
2021/11/19 08:05:49;;;;;;;15.85;11.38;;;19.50;78.50;;;;;;4977024;28;20050;-49
2021/11/19 08:08:15;;;;;;;15.48;11.45;;;;;;;;;;4992590;28;20054;-47
2021/11/19 08:10:41;;;;;;;15.75;12.43;;;17.50;83.70;;;;;;4993179;28;20034;-48
2021/11/19 08:13:09;;;;;;;16.90;12.43;;;16.10;88.70;;;;;;4993448;28;20125;-48
2021/11/19 08:15:35;;;;;;;20.73;13.98;;;15.40;90.20;;;;;;4993136;28;20093;-48
2021/11/19 08:18:02;;;;;;;19.20;14.55;;;15.10;91.50;;;;;;4993261;28;20041;-48
2021/11/19 08:20:37;;;;;;;20.30;15.40;;;14.80;96.50;;;;;;4993206;28;20039;-48
2021/11/19 08:23:07;;;;;;;21.33;14.15;;;14.40;99.50;;;;;;5013824;28;20046;-48
2021/11/19 08:25:34;;;;;;;18.20;15.20;;;;;;;;;;5015161;28;20026;-48
2021/11/19 08:28:01;;;;;;;20.05;13.38;;;14.60;95.60;;;;;;5015101;28;20410;-47
2021/11/19 08:30:31;;;;;;;15.45;11.88;;;15.20;95.50;;;;;;5015227;28;20462;-49
2021/11/19 08:32:59;;;;;;;14.32;9.52;;;14.80;95.50;;;;;;5014805;28;20117;-49
2021/11/19 08:35:26;;;;;;;17.52;11.32;;;14.40;96.00;;;;;;5012840;28;20034;-50
2021/11/19 08:37:54;;;;;;;13.60;11.20;;;14.30;96.60;;;;;;5015031;28;20036;-50
2021/11/19 08:40:22;;;;;;;14.90;10.80;;;14.60;97.20;;;;;;5014775;28;20041;-50
2021/11/19 08:42:48;;;;;;;15.10;11.60;;;14.60;96.60;;;;;;5014708;28;20030;-49
2021/11/19 08:45:18;;;;;;;15.30;13.48;;;16.30;97.60;;;;;;5014625;28;20030;-50
2021/11/19 08:47:46;;;;;;;15.00;11.55;;;17.80;95.50;;;;;;5014260;28;20091;-50
2021/11/19 08:50:14;;;;;;;18.38;14.15;;;17.80;92.80;;;;;;5028850;28;20053;-50
2021/11/19 08:52:40;;;;;;;14.85;10.27;;;17.50;92.90;;;;;;5014724;28;20037;-50
2021/11/19 08:55:09;;;;;;;19.95;15.25;;;17.40;92.90;;;;;;5014414;28;20025;-50
2021/11/19 08:57:35;;;;;;;15.15;10.35;;;16.20;93.90;;;;;;4995281;28;20038;-49
2021/11/19 09:00:03;;;;;;;17.45;12.35;;;16.20;93.90;;;;;;5011739;28;20033;-50
2021/11/19 09:02:29;;;;;;;61.90;38.78;;;15.60;94.90;;;;;;5012041;28;20042;-50
2021/11/19 09:04:55;;;;;;;13.77;9.63;;;15.50;95.10;;;;;;5011962;28;20081;-50
2021/11/19 09:07:22;;;;;;;12.77;10.07;;;14.70;95.70;;;;;;5011743;28;20057;-50
2021/11/19 09:09:48;;;;;;;17.20;13.48;;;;;;;;;;5011766;28;20041;-50
2021/11/19 09:12:15;;;;;;;15.27;11.20;;;14.20;97.00;;;;;;5011909;28;20066;-49
2021/11/19 09:14:41;;;;;;;24.90;21.35;;;13.60;97.90;;;;;;5009076;28;20116;-49
2021/11/19 09:17:34;;;;;;;17.13;10.32;;;13.70;99.20;;;;;;5011800;28;20113;-49
2021/11/19 09:20:13;;;;;;;15.68;11.55;;;13.20;99.70;;;;;;5010329;28;20061;-50
2021/11/19 09:22:52;;;;;;;16.45;11.10;;;12.90;99.90;;;;;;4996012;28;20092;-49
2021/11/19 09:25:21;;;;;;;13.43;10.13;;;12.90;99.90;;;;;;5011581;28;20038;-50
2021/11/19 09:27:47;;;;;;;14.88;11.10;;;13.40;99.90;;;;;;5011761;28;20038;-50
2021/11/19 09:30:28;;;;;;;14.82;10.43;;;13.80;99.90;;;;;;4994825;28;20489;-50
2021/11/19 09:32:56;;;;;;;17.45;11.98;;;14.10;99.90;;;;;;5013105;28;20033;-49
2021/11/19 09:35:26;;;;;;;15.35;10.77;;;14.20;99.90;;;;;;5013729;28;20339;-49
2021/11/19 09:37:52;;;;;;;16.92;11.73;;;14.30;99.30;;;;;;5028076;28;20352;-50
2021/11/19 09:40:25;;;;;;;18.85;12.63;;;14.20;99.50;;;;;;5013806;28;20069;-50
2021/11/19 09:43:10;;;;;;;13.05;9.55;;;14.40;99.60;;;;;;5013786;28;20101;-50
2021/11/19 09:46:11;;;;;;;12.75;9.18;;;14.40;99.20;;;;;;5013615;28;20026;-50
2021/11/19 09:49:04;;;;;;;13.45;11.00;;;14.50;98.50;;;;;;5049903;28;20508;-49
2021/11/19 09:52:09;;;;;;;14.65;10.60;;;14.50;99.30;;;;;;5049046;28;20424;-50
2021/11/19 09:54:57;;;;;;;13.40;10.48;;;14.70;98.60;;;;;;4990125;28;20540;-48
2021/11/19 09:57:46;;;;;;;17.20;10.85;;;14.80;98.40;;;;;;4941511;28;20046;-49
2021/11/19 10:00:43;;;;;;;11.35;8.27;;;14.80;98.60;;;;;;4989980;28;20060;-49
2021/11/19 10:03:57;;;;;;;10.52;8.35;;;15.00;97.20;;;;;;4989983;28;20042;-49
2021/11/19 10:06:48;;;;;;;11.02;7.93;;;15.00;97.40;;;;;;4951060;29;20035;-49
2021/11/19 10:09:25;;;;;;;14.23;10.10;;;14.90;98.00;;;;;;4951198;29;20035;-49
2021/11/19 10:11:54;;;;;;;14.13;8.63;;;15.00;97.60;;;;;;4951175;28;20048;-49
2021/11/19 10:14:29;;;;;;;11.38;7.85;;;15.20;97.20;;;;;;4951180;28;20126;-48
2021/11/19 10:17:06;;;;;;;10.70;7.43;;;14.80;97.50;;;;;;4951139;29;20046;-50
2021/11/19 10:19:40;;;;;;;11.73;7.45;;;14.80;97.00;;;;;;4942283;29;20035;-50
2021/11/19 10:22:30;;;;;;;10.68;7.70;;;14.70;97.40;;;;;;4899836;29;20050;-50
2021/11/19 10:25:25;;;;;;;11.32;7.88;;;14.80;97.20;;;;;;4931807;29;20114;-49
2021/11/19 10:27:54;;;;;;;10.07;7.43;;;14.90;97.20;;;;;;4931901;29;20038;-50
2021/11/19 10:30:48;;;;;;;9.50;7.18;;;15.00;95.80;;;;;;4937215;28;20047;-50
2021/11/19 10:33:29;;;;;;;9.68;7.45;;;14.90;96.10;;;;;;5009084;28;20040;-50
2021/11/19 10:36:14;;;;;;;12.27;7.70;;;14.70;96.50;;;;;;5009161;28;20066;-50
2021/11/19 10:39:17;;;;;;;9.77;7.40;;;14.60;96.80;;;;;;5009044;28;20057;-50
2021/11/19 10:42:08;;;;;;;12.32;8.15;;;14.80;97.10;;;;;;5008596;28;20536;-50
2021/11/19 10:44:52;;;;;;;13.77;8.68;;;14.90;96.50;;;;;;5042609;28;20489;-51
2021/11/19 10:47:33;;;;;;;13.63;8.50;;;14.40;97.30;;;;;;4997827;28;20385;-51
2021/11/19 10:50:08;;;;;;;12.13;8.37;;;14.40;98.00;;;;;;4993359;28;20066;-50
2021/11/19 10:53:11;;;;;;;14.13;9.75;;;14.30;98.40;;;;;;4990491;28;20292;-49
2021/11/19 10:55:55;;;;;;;12.48;9.55;;;14.20;98.00;;;;;;5006638;28;20121;-48
2021/11/19 10:58:40;;;;;;;13.23;9.55;;;14.30;98.20;;;;;;4997884;28;20045;-48
2021/11/19 11:01:11;;;;;;;11.50;9.07;;;14.30;98.80;;;;;;4986427;28;20529;-49
2021/11/19 11:04:02;;;;;;;16.30;9.77;;;14.20;98.30;;;;;;4972518;28;20490;-48
2021/11/19 11:06:52;;;;;;;13.50;8.43;;;14.00;98.50;;;;;;4972150;28;20057;-48
2021/11/19 11:09:23;;;;;;;17.52;11.00;;;13.80;99.00;;;;;;4972082;28;20490;-47
2021/11/19 11:12:08;;;;;;;10.68;6.85;;;13.70;99.90;;;;;;4986717;28;20052;-48
2021/11/19 11:14:39;;;;;;;14.88;9.95;;;13.40;99.90;;;;;;4995886;28;20034;-53
2021/11/19 11:17:24;;;;;;;19.77;10.83;;;13.30;99.90;;;;;;4991844;28;20026;-52
2021/11/19 11:19:53;;;;;;;18.50;11.80;;;;;;;;;;4993992;28;20144;-52
2021/11/19 11:22:25;;;;;;;23.08;13.70;;;13.20;99.90;;;;;;5011164;28;20065;-52
2021/11/19 11:24:54;;;;;;;16.90;10.35;;;13.40;99.90;;;;;;5011286;28;20030;-53
2021/11/19 11:27:35;;;;;;;14.32;10.07;;;13.30;99.90;;;;;;5009126;28;20393;-53
2021/11/19 11:30:11;;;;;;;15.65;10.88;;;13.20;99.90;;;;;;4993619;28;20022;-52
2021/11/19 11:32:55;;;;;;;17.40;12.13;;;13.40;99.90;;;;;;5001010;28;20030;-52
2021/11/19 11:35:39;;;;;;;17.45;12.60;;;13.70;99.90;;;;;;4991417;28;20038;-52
2021/11/19 11:38:15;;;;;;;19.48;14.00;;;13.90;99.90;;;;;;4993549;28;20033;-52
2021/11/19 11:41:12;;;;;;;23.20;14.50;;;14.20;99.90;;;;;;4999886;28;20034;-53
2021/11/19 11:43:52;;;;;;;16.35;10.73;;;14.30;99.70;;;;;;4997455;28;20371;-48
2021/11/19 11:46:22;;;;;;;16.42;10.82;;;14.00;99.80;;;;;;4998347;28;20482;-50
2021/11/19 11:49:16;;;;;;;15.55;9.85;;;14.10;99.90;;;;;;4991975;28;20401;-50
2021/11/19 11:52:18;;;;;;;15.82;11.38;;;14.10;99.90;;;;;;4994391;28;20047;-51
2021/11/19 11:54:57;;;;;;;23.98;16.98;;;13.90;99.30;;;;;;4998440;28;20124;-52
2021/11/19 11:57:28;;;;;;;63.20;32.33;;;13.60;99.90;;;;;;5004281;28;20033;-51
2021/11/19 12:00:04;;;;;;;14.02;10.13;;;13.70;99.90;;;;;;4993860;28;20046;-53
2021/11/19 12:02:30;;;;;;;60.30;28.67;;;13.60;99.90;;;;;;4992310;28;20522;-54
2021/11/19 12:05:14;;;;;;;22.40;14.82;;;13.50;99.90;;;;;;4992350;28;20141;-54
2021/11/19 12:07:52;;;;;;;15.73;10.65;;;13.70;99.90;;;;;;4992193;28;20030;-54
2021/11/19 12:10:31;;;;;;;12.88;9.52;;;13.80;99.90;;;;;;4992190;28;20042;-53
2021/11/19 12:13:16;;;;;;;19.30;11.35;;;13.70;99.60;;;;;;4992176;28;20576;-53
2021/11/19 12:16:05;;;;;;;18.00;11.05;;;13.60;99.90;;;;;;4992113;28;20039;-53
2021/11/19 12:18:56;;;;;;;38.13;33.88;;;13.60;99.90;;;;;;4992224;28;20026;-54
2021/11/19 12:21:42;;;;;;;16.38;10.52;;;13.70;99.90;;;;;;4992068;28;20557;-53
2021/11/19 12:24:17;;;;;;;14.88;10.10;;;13.30;99.90;;;;;;4992099;28;20061;-54
2021/11/19 12:27:01;;;;;;;32.75;20.05;;;13.50;99.90;;;;;;4994161;28;20050;-54
2021/11/19 12:29:52;;;;;;;13.35;9.38;;;13.20;99.90;;;;;;4994428;28;20030;-53
2021/11/19 12:32:30;;;;;;;15.15;10.68;;;13.20;99.90;;;;;;4994541;28;20038;-54
2021/11/19 12:34:57;;;;;;;15.82;10.02;;;13.20;99.90;;;;;;4994431;28;20030;-53
2021/11/19 12:37:37;;;;;;;15.48;10.15;;;13.30;99.90;;;;;;4994256;28;20375;-54
2021/11/19 12:40:39;;;;;;;19.42;11.48;;;13.20;99.90;;;;;;4993534;28;20038;-53
2021/11/19 12:43:10;;;;;;;16.60;10.57;;;13.00;99.90;;;;;;4994276;28;20038;-55
2021/11/19 12:45:43;;;;;;;14.32;9.52;;;13.00;99.90;;;;;;4994101;28;20030;-55
2021/11/19 12:48:17;;;;;;;;;;;13.00;99.90;;;;;;4994654;28;20091;-55
2021/11/19 12:50:59;;;;;;;13.65;9.95;;;12.80;99.90;;;;;;4993928;28;19928;-54
2021/11/19 12:53:45;;;;;;;13.75;9.30;;;13.10;99.90;;;;;;4993887;28;20125;-54
2021/11/19 12:56:18;;;;;;;15.82;10.70;;;13.30;99.90;;;;;;4993838;28;20022;-54
2021/11/19 12:59:13;;;;;;;26.67;11.18;;;13.20;99.90;;;;;;4994124;28;20478;-54
2021/11/19 13:02:16;;;;;;;17.30;9.75;;;13.20;99.90;;;;;;4958572;28;20608;-54
2021/11/19 13:05:04;;;;;;;14.05;9.63;;;13.20;99.90;;;;;;4991289;28;20034;-54
2021/11/19 13:07:45;;;;;;;15.05;8.80;;;13.30;99.90;;;;;;4917366;29;20054;-53